Moultrie, GA

2:57 PM EDT en Septiembre 02, 2014 (GMT -0400)
City of Moultrie Service Center | Change Station
CLOSE
Current Station
Estación meteorológica personal
Location: Moultrie, GA
Altura: 299 ft
Estaciones meteorológicas cercanas

Alt 299 ft 31.19 °N, 83.79 °W | Updated 22 minutes ago

Clear
Despejado
92.5 ° F
Sensación térmica 102 ° F
N
0.0
Viento Variable Viento desde SE
Gusts 5.0 mph

Hoy
Alta -- | Baja -- ° F
--% Posibilidad de precipitaciones
Ayer
Alta -- | Baja -- ° F
Precip. -- pul
7:11 AM 7:57 PM
Cuarto creciente, 54% visible
Presión 30.06 pul
Visibilidad 10.0 Millas
Nubes Despejado
Índice de calor 102 ° F
Punto de rocío 73 ° F
Humedad 54%
Precipitaciones 0.00 pul
Espesor de la nieve No disponible.
UV 11 de una escala de 12
Polen 8.40 de una escala de 12
Calidad del aire No disponible.
Flu Activity No disponible.
METAR KMGR 021835Z AUTO 26006KT 10SM CLR 34/21 A3006 RMK AO2

More Conditions Fewer Conditions

Presión 30.06 pul
Visibilidad 10.0 Millas
Nubes Despejado
Índice de calor 102 ° F
Punto de rocío 73 ° F
Humedad 54%
Precipitaciones 0.00 pul
Espesor de la nieve No disponible.
UV 11 de una escala de 12
Polen 8.40 de una escala de 12
Calidad del aire No disponible.
Flu Activity No disponible.
METAR KMGR 021835Z AUTO 26006KT 10SM CLR 34/21 A3006 RMK AO2

More Conditions Fewer Conditions

10-Day Weather Forecast

Almanac

Astronomía

Sep. 02, 2014 Salida Puesta
Hora real 7:11 AM EDT 7:57 PM EDT
Crepúsculo civil 6:47 AM EDT 8:21 PM EDT
Crepúsculo náutico 6:18 AM EDT 8:50 PM EDT
Crepúsculo astronómico 5:48 AM EDT 9:20 PM EDT
Luna 2:27 PM EDT 12:25 AM EDT
Horas de luz 13h 34m
Horas de luz
12h 45m
Tomorrow will be 1m 50s shorter.
Cuarto creciente, 54% of the Moon is Illuminated
Hoy
Cuarto creciente
Sep 8
Luna llena
Sep 15
Cuarto menguante
Sep 24
Nueva
Oct 1
Cuarto creciente

Extremos de hoy

Máximos del estado Bajos del estado

Community

WunderPhotos

Upload Photos

1,749,743 ¡fotos cargadas!

WunderBlogs® & News

By Dr. Jeff Masters
Director of Meteorology, Weather Underground
By Kari Strenfel
Meteorologist, Weather Underground
By Christopher C. Burt
Weather Historian, Weather Underground
September 2, 2014
September 2, 2014
September 2, 2014

Nearby

Grosos de nieve

Estación Profundido Altura
No tenemos constancia de nieve nueva.

Actividad de terremotos

Ciudad Distance Mag. Tiempo y dato
No hay informes recientes de la actividad sísmica.
Magnitud mínima muestra es 2,5.

Temperaturas de aguas costeras

Lugar Temperatura
Sin partes meteorológicos de las estaciones

Estaciones meteorológicas cercanas